createdAt,value
2023-04-24T00:00:43.428Z,14.44
2023-04-24T00:03:12.176Z,14.52
2023-04-24T00:05:41.363Z,14.63
2023-04-24T00:08:09.642Z,14.71
2023-04-24T00:10:38.472Z,14.62
2023-04-24T00:13:06.677Z,14.02
2023-04-24T00:15:36.440Z,14.06
2023-04-24T00:18:05.008Z,14.45
2023-04-24T00:20:34.609Z,14.63
2023-04-24T00:23:03.323Z,14.16
2023-04-24T00:25:31.763Z,14.70
2023-04-24T00:28:00.137Z,14.77
2023-04-24T00:30:28.278Z,14.23
2023-04-24T00:32:58.382Z,14.76
2023-04-24T00:35:26.449Z,14.56
2023-04-24T00:37:54.882Z,14.20
2023-04-24T00:40:23.820Z,14.34
2023-04-24T00:42:51.926Z,14.03
2023-04-24T00:45:20.569Z,14.28
2023-04-24T00:47:50.462Z,14.62
2023-04-24T00:50:20.636Z,14.62
2023-04-24T00:52:48.646Z,14.67
2023-04-24T00:55:16.809Z,14.69
2023-04-24T00:57:46.009Z,14.55
2023-04-24T01:00:15.838Z,14.83
2023-04-24T01:02:46.484Z,14.80
2023-04-24T01:05:16.360Z,14.86
2023-04-24T01:07:50.025Z,14.66
2023-04-24T01:10:19.269Z,14.90
2023-04-24T01:12:48.278Z,14.86
2023-04-24T01:15:16.504Z,14.80
2023-04-24T01:17:44.446Z,14.87
2023-04-24T01:20:12.840Z,14.93
2023-04-24T01:22:44.679Z,14.70
2023-04-24T01:25:12.653Z,14.54
2023-04-24T01:27:40.652Z,14.80
2023-04-24T01:30:10.363Z,14.73
2023-04-24T01:32:39.341Z,14.80
2023-04-24T01:35:09.142Z,14.84
2023-04-24T01:37:38.515Z,14.84
2023-04-24T01:40:09.923Z,14.66
2023-04-24T01:42:38.829Z,14.52
2023-04-24T01:45:12.544Z,14.69
2023-04-24T01:47:42.402Z,14.67
2023-04-24T01:50:11.643Z,14.60
2023-04-24T01:52:41.238Z,14.40
2023-04-24T01:55:13.114Z,14.69
2023-04-24T01:57:42.030Z,14.68
2023-04-24T02:00:12.330Z,14.55
2023-04-24T02:02:45.698Z,14.50
2023-04-24T02:05:15.454Z,14.29
2023-04-24T02:07:43.518Z,14.12
2023-04-24T02:10:13.439Z,14.17
2023-04-24T02:12:44.740Z,14.14
2023-04-24T02:15:13.864Z,14.22
2023-04-24T02:17:42.085Z,14.01
2023-04-24T02:20:10.402Z,13.97
2023-04-24T02:22:40.083Z,14.23
2023-04-24T02:25:09.166Z,14.10
2023-04-24T02:27:38.633Z,14.27
2023-04-24T02:30:09.234Z,14.47
2023-04-24T02:32:37.364Z,14.55
2023-04-24T02:35:05.835Z,13.99
2023-04-24T02:37:33.820Z,14.23
2023-04-24T02:40:01.895Z,14.25
2023-04-24T02:42:30.966Z,14.36
2023-04-24T02:45:03.194Z,14.59
2023-04-24T02:47:39.193Z,14.13
2023-04-24T02:50:14.721Z,13.90
2023-04-24T02:52:43.851Z,14.11
2023-04-24T02:55:14.250Z,14.23
2023-04-24T02:57:45.238Z,14.22
2023-04-24T03:00:18.508Z,13.76
2023-04-24T03:02:51.277Z,14.09
2023-04-24T03:05:19.515Z,13.87
2023-04-24T03:07:47.601Z,13.81
2023-04-24T03:10:15.726Z,14.19
2023-04-24T03:12:43.838Z,14.21
2023-04-24T03:15:12.702Z,14.34
2023-04-24T03:17:42.234Z,14.30
2023-04-24T03:20:11.338Z,14.26
2023-04-24T03:22:39.707Z,14.18
2023-04-24T03:25:11.142Z,14.48
2023-04-24T03:27:40.407Z,14.15
2023-04-24T03:30:44.264Z,14.14
2023-04-24T03:33:15.693Z,13.91
2023-04-24T03:35:56.426Z,13.89
2023-04-24T03:38:25.621Z,14.00
2023-04-24T03:41:03.261Z,13.99
2023-04-24T03:43:40.528Z,13.71
2023-04-24T03:46:10.431Z,13.94
2023-04-24T03:48:44.087Z,14.01
2023-04-24T03:51:12.944Z,13.97
2023-04-24T03:53:44.630Z,13.95
2023-04-24T03:56:14.531Z,13.49
2023-04-24T03:58:43.351Z,13.77
2023-04-24T04:01:12.752Z,13.90
2023-04-24T04:04:05.072Z,13.79
2023-04-24T04:06:33.133Z,13.91
2023-04-24T04:09:02.415Z,13.94
2023-04-24T04:11:31.530Z,13.97
2023-04-24T04:14:01.962Z,14.04
2023-04-24T04:16:30.325Z,14.22
2023-04-24T04:19:06.448Z,14.34
2023-04-24T04:21:34.854Z,13.70
2023-04-24T04:24:13.687Z,13.59
2023-04-24T04:26:48.161Z,12.76
2023-04-24T04:29:29.625Z,12.65
2023-04-24T04:31:57.914Z,13.00
2023-04-24T04:34:27.873Z,13.29
2023-04-24T04:36:55.696Z,13.24
2023-04-24T04:39:31.658Z,13.13
2023-04-24T04:42:05.582Z,13.55
2023-04-24T04:44:40.969Z,13.45
2023-04-24T04:47:11.764Z,13.44
2023-04-24T04:49:42.265Z,13.55
2023-04-24T04:52:18.641Z,13.17
2023-04-24T04:54:49.614Z,12.93
2023-04-24T04:57:24.820Z,13.07
2023-04-24T05:00:16.724Z,13.35
2023-04-24T05:02:50.757Z,13.61
2023-04-24T05:05:21.169Z,13.34
2023-04-24T05:07:50.394Z,13.47
2023-04-24T05:10:18.452Z,13.27
2023-04-24T05:12:46.590Z,13.27
2023-04-24T05:15:15.550Z,12.73
2023-04-24T05:17:43.915Z,12.69
2023-04-24T05:20:13.695Z,12.81
2023-04-24T05:22:43.010Z,13.09
2023-04-24T05:25:11.221Z,13.52
2023-04-24T05:27:48.216Z,13.59
2023-04-24T05:30:18.712Z,13.62
2023-04-24T05:32:46.975Z,13.72
2023-04-24T05:35:15.342Z,13.01
2023-04-24T05:37:44.992Z,12.66
2023-04-24T05:40:14.297Z,12.94
2023-04-24T05:42:42.305Z,13.00
2023-04-24T05:45:15.778Z,13.00
2023-04-24T05:47:44.576Z,12.86
2023-04-24T05:50:13.216Z,12.78
2023-04-24T05:52:41.179Z,12.70
2023-04-24T05:55:23.733Z,12.72
2023-04-24T05:57:51.689Z,12.73
2023-04-24T06:00:20.589Z,12.61
2023-04-24T06:02:57.304Z,12.68
2023-04-24T06:05:25.745Z,12.68
2023-04-24T06:07:58.358Z,12.60
2023-04-24T06:10:32.043Z,12.70
2023-04-24T06:13:01.531Z,12.41
2023-04-24T06:15:32.494Z,12.50
2023-04-24T06:18:13.656Z,12.68
2023-04-24T06:20:45.953Z,12.59
2023-04-24T06:23:14.895Z,12.93
2023-04-24T06:28:44.942Z,13.50
2023-04-24T06:31:12.817Z,13.48
2023-04-24T06:33:40.945Z,13.14
2023-04-24T06:36:09.204Z,13.64
2023-04-24T06:38:37.370Z,13.15
2023-04-24T06:41:07.116Z,13.66
2023-04-24T06:43:35.316Z,14.08
2023-04-24T06:46:05.925Z,13.86
2023-04-24T06:48:35.527Z,13.95
2023-04-24T06:51:03.509Z,13.90
2023-04-24T06:53:35.295Z,14.09
2023-04-24T06:56:05.094Z,13.96
2023-04-24T06:58:34.326Z,14.35
2023-04-24T07:01:04.447Z,13.74
2023-04-24T07:03:32.936Z,14.07
2023-04-24T07:06:01.437Z,13.80
2023-04-24T07:08:31.411Z,13.97
2023-04-24T07:10:59.677Z,14.27
2023-04-24T07:13:28.372Z,14.49
2023-04-24T07:15:58.175Z,14.11
2023-04-24T07:18:26.342Z,13.85
2023-04-24T07:20:54.242Z,13.51
2023-04-24T07:23:25.514Z,13.48
2023-04-24T07:25:53.588Z,13.89
2023-04-24T07:28:21.454Z,13.98
2023-04-24T07:30:49.316Z,14.11
2023-04-24T07:33:18.729Z,13.88
2023-04-24T07:35:46.640Z,14.38
2023-04-24T07:38:14.603Z,14.59
2023-04-24T07:40:43.064Z,15.43
2023-04-24T07:43:11.030Z,15.18
2023-04-24T07:45:39.124Z,15.70
2023-04-24T07:48:07.428Z,15.79
2023-04-24T07:50:37.268Z,15.38
2023-04-24T07:53:05.268Z,15.21
2023-04-24T07:55:33.387Z,14.79
2023-04-24T07:58:01.538Z,16.15
2023-04-24T08:00:29.503Z,15.91
2023-04-24T08:02:57.667Z,15.95
2023-04-24T08:05:26.675Z,15.49
2023-04-24T08:07:56.398Z,15.48
2023-04-24T08:10:25.382Z,15.41
2023-04-24T08:12:53.490Z,15.68
2023-04-24T08:15:21.505Z,15.96
2023-04-24T08:17:49.521Z,16.28
2023-04-24T08:20:17.517Z,15.95
2023-04-24T08:22:49.748Z,15.42
2023-04-24T08:25:20.124Z,15.65
2023-04-24T08:27:48.134Z,15.51
2023-04-24T08:30:16.544Z,16.06
2023-04-24T08:32:44.592Z,16.32
2023-04-24T08:35:12.527Z,15.88
2023-04-24T08:37:40.401Z,16.52
2023-04-24T08:40:15.165Z,16.46
2023-04-24T08:42:46.096Z,15.82
2023-04-24T08:45:14.894Z,16.69
2023-04-24T08:47:45.096Z,15.72
2023-04-24T08:50:13.686Z,15.80
2023-04-24T08:52:43.106Z,15.50
2023-04-24T08:55:11.969Z,15.42
2023-04-24T08:57:41.429Z,15.28
2023-04-24T09:00:14.725Z,14.60
2023-04-24T09:02:45.644Z,15.25
2023-04-24T09:05:15.146Z,16.06
2023-04-24T09:07:47.213Z,16.45
2023-04-24T09:10:15.774Z,16.36
2023-04-24T09:12:43.984Z,16.78
2023-04-24T09:15:13.459Z,16.74
2023-04-24T09:17:41.474Z,16.13
2023-04-24T09:20:10.515Z,15.22
2023-04-24T09:22:39.523Z,14.40
2023-04-24T09:25:10.310Z,14.54
2023-04-24T09:27:44.036Z,14.11
2023-04-24T09:30:15.984Z,13.92
2023-04-24T09:32:45.927Z,14.08
2023-04-24T09:35:17.110Z,14.50
2023-04-24T09:37:47.690Z,15.11
2023-04-24T09:40:18.333Z,15.03
2023-04-24T09:42:47.996Z,15.99
2023-04-24T09:45:17.625Z,16.54
2023-04-24T09:47:46.766Z,17.08
2023-04-24T09:50:20.369Z,16.83
2023-04-24T09:52:59.404Z,17.41
2023-04-24T09:55:27.629Z,16.48
2023-04-24T09:57:58.426Z,15.43
2023-04-24T10:00:30.011Z,15.85
2023-04-24T10:03:00.037Z,16.85
2023-04-24T10:05:33.487Z,17.01
2023-04-24T10:08:08.250Z,17.07
2023-04-24T10:10:39.286Z,17.34
2023-04-24T10:13:07.790Z,17.78
2023-04-24T10:15:41.677Z,17.95
2023-04-24T10:18:10.810Z,17.80
2023-04-24T10:20:41.172Z,17.67
2023-04-24T10:23:09.410Z,16.58
2023-04-24T10:25:38.647Z,17.19
2023-04-24T10:28:09.746Z,16.68
2023-04-24T10:30:44.914Z,16.19
2023-04-24T10:33:14.189Z,15.84
2023-04-24T10:35:51.680Z,15.61
2023-04-24T10:38:25.913Z,15.96
2023-04-24T10:40:54.040Z,15.85
2023-04-24T10:43:22.174Z,15.89
2023-04-24T10:46:05.009Z,16.01
2023-04-24T10:48:33.659Z,15.40
2023-04-24T10:51:01.895Z,15.76
2023-04-24T10:53:31.721Z,16.08
2023-04-24T10:56:04.721Z,15.83
2023-04-24T10:58:41.394Z,15.88
2023-04-24T11:01:10.853Z,16.05
2023-04-24T11:03:52.446Z,15.66
2023-04-24T11:06:32.907Z,15.68
2023-04-24T11:09:06.333Z,16.49
2023-04-24T11:11:35.766Z,16.51
2023-04-24T11:14:11.912Z,15.98
2023-04-24T11:16:46.403Z,17.55
2023-04-24T11:19:22.777Z,16.95
2023-04-24T11:21:58.463Z,17.31
2023-04-24T11:24:32.771Z,18.40
2023-04-24T11:27:06.935Z,17.15
2023-04-24T11:29:43.874Z,17.77
2023-04-24T11:32:25.281Z,17.86
2023-04-24T11:34:56.826Z,17.93
2023-04-24T11:37:29.813Z,18.30
2023-04-24T11:40:00.934Z,17.48
2023-04-24T11:42:30.903Z,17.69
2023-04-24T11:45:01.506Z,16.68
2023-04-24T11:47:34.652Z,16.19
2023-04-24T11:50:03.837Z,16.24
2023-04-24T11:52:34.715Z,16.73
2023-04-24T11:55:03.219Z,16.51
2023-04-24T11:57:34.863Z,17.24
2023-04-24T12:00:04.556Z,17.26
2023-04-24T12:02:42.497Z,17.46
2023-04-24T12:05:13.565Z,16.51
2023-04-24T12:07:45.286Z,16.84
2023-04-24T12:10:16.831Z,16.95
2023-04-24T12:13:02.830Z,16.63
2023-04-24T12:15:32.649Z,16.86
2023-04-24T12:18:07.950Z,17.05
2023-04-24T12:20:38.208Z,16.64
2023-04-24T12:23:06.235Z,16.14
2023-04-24T12:25:35.617Z,16.12
2023-04-24T12:28:13.155Z,16.23
2023-04-24T12:30:45.326Z,16.70
2023-04-24T12:33:14.741Z,16.53
2023-04-24T12:35:43.367Z,15.61
2023-04-24T12:38:13.809Z,15.76
2023-04-24T12:40:42.347Z,15.22
2023-04-24T12:43:16.710Z,15.16
2023-04-24T12:45:45.844Z,16.56
2023-04-24T12:48:15.656Z,16.38
2023-04-24T12:50:46.829Z,16.04
2023-04-24T12:53:16.892Z,15.88
2023-04-24T12:55:45.547Z,15.94
2023-04-24T12:58:14.178Z,15.83
2023-04-24T13:00:44.490Z,15.56
2023-04-24T13:03:12.869Z,15.40
2023-04-24T13:05:42.694Z,15.44
2023-04-24T13:08:13.759Z,15.61
2023-04-24T13:10:43.858Z,16.20
2023-04-24T13:13:11.786Z,16.52
2023-04-24T13:15:41.929Z,16.01
2023-04-24T13:18:09.864Z,16.32
2023-04-24T13:20:37.996Z,15.88
2023-04-24T13:23:07.252Z,15.50
2023-04-24T13:25:38.442Z,15.48
2023-04-24T13:28:07.460Z,16.22
2023-04-24T13:30:35.580Z,15.88
2023-04-24T13:33:04.223Z,15.81
2023-04-24T13:35:32.511Z,16.55
2023-04-24T13:38:02.413Z,16.25
2023-04-24T13:40:31.890Z,15.61
2023-04-24T13:42:59.894Z,15.93
2023-04-24T13:45:27.854Z,16.03
2023-04-24T13:47:55.922Z,16.24
2023-04-24T13:50:24.356Z,15.55
2023-04-24T13:52:52.468Z,16.00
2023-04-24T13:55:20.587Z,16.47
2023-04-24T13:57:53.271Z,16.23
2023-04-24T14:00:22.106Z,16.02
2023-04-24T14:02:50.457Z,16.63
2023-04-24T14:05:19.280Z,15.96
2023-04-24T14:07:47.318Z,15.73
2023-04-24T14:10:15.579Z,15.89
2023-04-24T14:12:43.587Z,16.30
2023-04-24T14:15:14.310Z,16.24
2023-04-24T14:17:42.784Z,16.16
2023-04-24T14:20:11.367Z,16.09
2023-04-24T14:22:39.335Z,15.96
2023-04-24T14:25:10.205Z,16.55
2023-04-24T14:27:38.394Z,16.62
2023-04-24T14:30:07.629Z,16.62
2023-04-24T14:32:37.044Z,16.05
2023-04-24T14:35:05.676Z,16.21
2023-04-24T14:37:33.672Z,15.81
2023-04-24T14:42:37.546Z,15.93
2023-04-24T14:45:06.169Z,15.61
2023-04-24T14:47:34.136Z,16.37
2023-04-24T14:50:03.989Z,16.63
2023-04-24T14:52:31.890Z,16.05
2023-04-24T14:54:59.752Z,15.33
2023-04-24T14:57:27.691Z,16.01
2023-04-24T14:59:55.737Z,15.53
2023-04-24T15:02:23.991Z,15.65
2023-04-24T15:04:52.269Z,15.72
2023-04-24T15:07:22.819Z,16.14
2023-04-24T15:09:50.866Z,15.58
2023-04-24T15:12:18.905Z,15.77
2023-04-24T15:14:48.393Z,15.76
2023-04-24T15:17:16.437Z,15.57
2023-04-24T15:19:44.838Z,15.18
2023-04-24T15:22:12.728Z,16.03
2023-04-24T15:24:42.075Z,15.74
2023-04-24T15:27:12.162Z,15.57
2023-04-24T15:29:40.572Z,15.65
2023-04-24T15:32:10.157Z,15.67
2023-04-24T15:34:38.864Z,15.45
2023-04-24T15:37:06.869Z,15.71
2023-04-24T15:39:35.374Z,15.42
2023-04-24T15:42:05.365Z,15.35
2023-04-24T15:44:33.331Z,15.17
2023-04-24T15:47:02.740Z,15.03
2023-04-24T15:49:30.695Z,14.83
2023-04-24T15:51:58.558Z,14.75
2023-04-24T15:54:26.402Z,14.84
2023-04-24T15:56:54.632Z,15.00
2023-04-24T15:59:24.000Z,16.03
2023-04-24T16:01:52.073Z,15.96
2023-04-24T16:04:20.343Z,15.68
2023-04-24T16:06:48.447Z,16.00
2023-04-24T16:09:16.341Z,15.17
2023-04-24T16:11:44.262Z,15.97
2023-04-24T16:14:13.183Z,15.90
2023-04-24T16:16:42.423Z,16.18
2023-04-24T16:19:10.425Z,15.10
2023-04-24T16:21:38.306Z,15.27
2023-04-24T16:24:06.833Z,15.21
2023-04-24T16:26:34.775Z,15.32
2023-04-24T16:29:02.852Z,15.27
2023-04-24T16:31:30.985Z,16.13
2023-04-24T16:34:00.352Z,15.60
2023-04-24T16:36:28.656Z,15.91
2023-04-24T16:38:56.701Z,15.97
2023-04-24T16:41:24.654Z,15.45
2023-04-24T16:43:53.134Z,15.41
2023-04-24T16:46:21.585Z,15.56
2023-04-24T16:48:49.985Z,15.60
2023-04-24T16:51:19.936Z,15.22
2023-04-24T16:53:47.772Z,14.97
2023-04-24T16:56:16.400Z,15.08
2023-04-24T16:58:45.910Z,14.88
2023-04-24T17:01:15.818Z,15.66
2023-04-24T17:03:45.033Z,15.78
2023-04-24T17:06:14.115Z,15.63
2023-04-24T17:08:43.479Z,15.63
2023-04-24T17:11:11.547Z,15.48
2023-04-24T17:13:40.633Z,15.57
2023-04-24T17:16:09.825Z,15.63
2023-04-24T17:18:40.922Z,15.80
2023-04-24T17:21:10.573Z,15.53
2023-04-24T17:23:44.238Z,15.60
2023-04-24T17:26:12.689Z,15.58
2023-04-24T17:28:40.977Z,15.22
2023-04-24T17:31:08.990Z,14.88
2023-04-24T17:33:37.042Z,15.25
2023-04-24T17:36:06.810Z,14.94
2023-04-24T17:38:35.128Z,15.30
2023-04-24T17:41:05.045Z,15.23
2023-04-24T17:43:33.750Z,15.15
2023-04-24T17:46:02.517Z,15.33
2023-04-24T17:48:30.929Z,15.23
2023-04-24T17:50:59.149Z,15.17
2023-04-24T17:53:27.371Z,14.91
2023-04-24T17:55:57.829Z,15.32
2023-04-24T17:58:28.568Z,15.31
2023-04-24T18:00:56.659Z,15.24
2023-04-24T18:03:25.393Z,15.28
2023-04-24T18:05:54.423Z,15.38
2023-04-24T18:08:22.669Z,15.10
2023-04-24T18:10:52.056Z,15.12
2023-04-24T18:13:22.883Z,15.47
2023-04-24T18:15:53.001Z,15.40
2023-04-24T18:18:22.082Z,15.32
2023-04-24T18:20:52.053Z,15.08
2023-04-24T18:23:20.722Z,14.85
2023-04-24T18:25:50.942Z,15.05
2023-04-24T18:28:19.668Z,15.15
2023-04-24T18:30:49.048Z,15.24
2023-04-24T18:33:24.909Z,15.25
2023-04-24T18:36:00.716Z,15.26
2023-04-24T18:38:30.706Z,15.49
2023-04-24T18:41:25.089Z,15.30
2023-04-24T18:44:18.147Z,15.10
2023-04-24T18:46:58.902Z,14.94
2023-04-24T18:49:54.912Z,15.20
2023-04-24T18:52:51.542Z,15.08
2023-04-24T18:55:35.303Z,15.45
2023-04-24T18:58:10.637Z,15.04
2023-04-24T19:00:50.604Z,14.78
2023-04-24T19:03:19.368Z,14.49
2023-04-24T19:05:49.741Z,14.34
2023-04-24T19:08:17.823Z,14.30
2023-04-24T19:10:45.930Z,14.10
2023-04-24T19:13:14.285Z,14.70
2023-04-24T19:15:42.566Z,14.88
2023-04-24T19:18:10.684Z,14.74
2023-04-24T19:20:39.214Z,14.77
2023-04-24T19:23:08.708Z,15.04
2023-04-24T19:25:37.582Z,15.04
2023-04-24T19:28:06.876Z,14.60
2023-04-24T19:30:35.304Z,14.55
2023-04-24T19:33:03.432Z,14.62
2023-04-24T19:35:31.547Z,14.55
2023-04-24T19:37:59.708Z,14.66
2023-04-24T19:40:29.789Z,14.65
2023-04-24T19:43:01.055Z,14.17
2023-04-24T19:45:29.698Z,14.35
2023-04-24T19:47:58.925Z,14.28
2023-04-24T19:50:28.488Z,14.64
2023-04-24T19:52:56.520Z,14.39
2023-04-24T19:55:24.568Z,14.21
2023-04-24T19:57:54.143Z,13.94
2023-04-24T20:00:22.536Z,14.10
2023-04-24T20:02:51.395Z,14.18
2023-04-24T20:05:20.045Z,14.13
2023-04-24T20:07:50.412Z,14.21
2023-04-24T20:10:18.668Z,14.26
2023-04-24T20:12:47.354Z,14.59
2023-04-24T20:15:17.331Z,14.06
2023-04-24T20:17:46.064Z,14.26
2023-04-24T20:20:17.203Z,14.24
2023-04-24T20:22:45.400Z,13.71
2023-04-24T20:25:13.959Z,13.94
2023-04-24T20:27:42.506Z,13.66
2023-04-24T20:30:13.420Z,13.88
2023-04-24T20:32:43.741Z,13.86
2023-04-24T20:35:13.454Z,13.71
2023-04-24T20:37:41.864Z,13.72
2023-04-24T20:40:10.597Z,13.38
2023-04-24T20:42:39.525Z,13.64
2023-04-24T20:45:08.874Z,13.83
2023-04-24T20:47:36.986Z,13.74
2023-04-24T20:50:08.006Z,13.90
2023-04-24T20:52:36.352Z,13.84
2023-04-24T20:55:05.220Z,13.81
2023-04-24T20:57:33.590Z,13.74
2023-04-24T21:00:03.202Z,13.88
2023-04-24T21:02:31.769Z,13.71
2023-04-24T21:05:00.037Z,13.58
2023-04-24T21:07:29.721Z,13.66
2023-04-24T21:09:57.994Z,13.43
2023-04-24T21:12:28.601Z,13.04
2023-04-24T21:14:56.588Z,13.01
2023-04-24T21:17:24.922Z,12.98
2023-04-24T21:19:56.331Z,12.88
2023-04-24T21:22:24.882Z,12.96
2023-04-24T21:24:54.556Z,12.98
2023-04-24T21:27:22.825Z,12.68
2023-04-24T21:29:51.270Z,12.90
2023-04-24T21:32:19.539Z,13.03
2023-04-24T21:34:47.749Z,12.93
2023-04-24T21:37:16.534Z,12.52
2023-04-24T21:39:44.790Z,11.59
2023-04-24T21:42:14.280Z,11.98
2023-04-24T21:44:44.660Z,12.55
2023-04-24T21:47:12.905Z,12.67
2023-04-24T21:49:43.606Z,12.52
2023-04-24T21:52:11.645Z,12.28
2023-04-24T21:54:39.678Z,12.06
2023-04-24T21:57:07.990Z,12.32
2023-04-24T21:59:37.686Z,12.51
2023-04-24T22:02:06.283Z,12.63
2023-04-24T22:04:34.647Z,12.42
2023-04-24T22:07:02.863Z,12.18
2023-04-24T22:09:31.262Z,12.32
2023-04-24T22:11:59.485Z,12.58
2023-04-24T22:14:28.211Z,12.65
2023-04-24T22:16:59.977Z,12.50
2023-04-24T22:19:28.438Z,12.66
2023-04-24T22:21:57.668Z,11.90
2023-04-24T22:24:25.715Z,12.50
2023-04-24T22:26:54.281Z,12.42
2023-04-24T22:29:22.442Z,12.01
2023-04-24T22:31:50.824Z,12.31
2023-04-24T22:34:21.075Z,12.52
2023-04-24T22:36:49.369Z,12.83
2023-04-24T22:39:17.629Z,12.61
2023-04-24T22:41:46.045Z,12.11
2023-04-24T22:44:14.591Z,12.23
2023-04-24T22:46:42.748Z,11.81
2023-04-24T22:49:13.150Z,12.16
2023-04-24T22:51:42.568Z,12.29
2023-04-24T22:54:11.065Z,12.49
2023-04-24T22:56:41.005Z,12.54
2023-04-24T22:59:09.043Z,12.77
2023-04-24T23:01:37.181Z,12.94
2023-04-24T23:04:05.722Z,12.96
2023-04-24T23:06:34.406Z,13.09
2023-04-24T23:09:04.297Z,13.00
2023-04-24T23:11:32.436Z,12.74
2023-04-24T23:14:02.942Z,12.83
2023-04-24T23:16:32.331Z,13.00
2023-04-24T23:19:00.670Z,12.73
2023-04-24T23:21:28.718Z,12.75
2023-04-24T23:23:56.830Z,12.47
2023-04-24T23:26:26.842Z,12.49
2023-04-24T23:28:55.294Z,12.49
2023-04-24T23:31:23.537Z,12.50
2023-04-24T23:33:52.248Z,12.24
2023-04-24T23:36:21.067Z,12.37
2023-04-24T23:38:50.594Z,12.76
2023-04-24T23:41:19.105Z,12.09
2023-04-24T23:43:50.938Z,12.05
2023-04-24T23:46:19.680Z,12.03
2023-04-24T23:48:48.125Z,12.45
2023-04-24T23:51:19.444Z,12.57
2023-04-24T23:53:47.868Z,12.57
2023-04-24T23:56:16.254Z,12.26
2023-04-24T23:58:44.116Z,12.53
